createdAt,value
2019-01-13T00:00:02.569Z,97.70
2019-01-13T00:02:33.490Z,97.70
2019-01-13T00:05:05.883Z,97.80
2019-01-13T00:07:37.193Z,97.80
2019-01-13T00:10:08.452Z,97.80
2019-01-13T00:12:39.303Z,97.70
2019-01-13T00:15:11.163Z,97.70
2019-01-13T00:17:42.143Z,97.70
2019-01-13T00:20:13.659Z,97.70
2019-01-13T00:22:44.447Z,97.70
2019-01-13T00:25:15.298Z,97.70
2019-01-13T00:27:46.500Z,97.80
2019-01-13T00:30:20.801Z,97.80
2019-01-13T00:32:51.925Z,97.80
2019-01-13T00:35:23.120Z,97.90
2019-01-13T00:37:54.272Z,97.80
2019-01-13T00:40:25.085Z,97.90
2019-01-13T00:42:55.941Z,97.90
2019-01-13T00:45:26.911Z,97.80
2019-01-13T00:47:58.284Z,97.80
2019-01-13T00:50:29.072Z,97.70
2019-01-13T00:52:59.674Z,97.80
2019-01-13T00:55:30.896Z,97.70
2019-01-13T00:58:01.841Z,97.70
2019-01-13T01:00:32.631Z,97.70
2019-01-13T01:03:03.923Z,97.70
2019-01-13T01:05:35.374Z,97.70
2019-01-13T01:08:06.648Z,97.70
2019-01-13T01:10:38.702Z,97.60
2019-01-13T01:13:10.220Z,97.60
2019-01-13T01:15:41.668Z,97.60
2019-01-13T01:18:12.390Z,97.50
2019-01-13T01:20:43.618Z,97.50
2019-01-13T01:23:18.309Z,97.50
2019-01-13T01:25:49.178Z,97.40
2019-01-13T01:28:20.155Z,97.50
2019-01-13T01:30:51.026Z,97.50
2019-01-13T01:33:26.053Z,97.50
2019-01-13T01:35:56.566Z,97.80
2019-01-13T01:38:27.960Z,97.60
2019-01-13T01:40:59.364Z,97.50
2019-01-13T01:43:30.504Z,97.60
2019-01-13T01:46:01.638Z,97.50
2019-01-13T01:48:32.574Z,97.50
2019-01-13T01:51:03.612Z,97.50
2019-01-13T01:53:34.486Z,97.60
2019-01-13T01:56:05.411Z,97.60
2019-01-13T01:58:36.278Z,97.50
2019-01-13T02:01:07.729Z,97.50
2019-01-13T02:03:39.312Z,97.60
2019-01-13T02:06:10.168Z,97.50
2019-01-13T02:08:41.309Z,97.50
2019-01-13T02:11:12.239Z,97.50
2019-01-13T02:13:43.146Z,97.50
2019-01-13T02:16:14.451Z,97.50
2019-01-13T02:18:45.366Z,97.50
2019-01-13T02:21:16.195Z,97.50
2019-01-13T02:23:47.678Z,97.50
2019-01-13T02:26:19.234Z,97.50
2019-01-13T02:28:50.142Z,97.50
2019-01-13T02:31:20.610Z,97.60
2019-01-13T02:33:51.224Z,97.50
2019-01-13T02:36:21.784Z,97.50
2019-01-13T02:38:52.372Z,97.50
2019-01-13T02:41:23.655Z,97.60
2019-01-13T02:43:55.142Z,97.70
2019-01-13T02:50:36.083Z,97.50
2019-01-13T02:53:07.856Z,97.60
2019-01-13T02:55:38.736Z,97.60
2019-01-13T02:58:09.334Z,97.50
2019-01-13T03:00:40.216Z,97.50
2019-01-13T03:03:11.120Z,97.50
2019-01-13T03:05:41.891Z,97.70
2019-01-13T03:08:14.053Z,97.70
2019-01-13T03:10:45.377Z,97.60
2019-01-13T03:13:16.573Z,97.60
2019-01-13T03:15:47.860Z,97.70
2019-01-13T03:18:18.837Z,97.80
2019-01-13T03:20:50.993Z,97.70
2019-01-13T03:23:22.458Z,97.70
2019-01-13T03:25:53.745Z,97.70
2019-01-13T03:28:25.055Z,97.80
2019-01-13T03:30:56.304Z,97.80
2019-01-13T03:33:27.799Z,97.70
2019-01-13T03:35:58.914Z,97.70
2019-01-13T03:38:31.582Z,97.70
2019-01-13T03:41:03.316Z,97.70
2019-01-13T03:43:34.219Z,97.70
2019-01-13T03:46:05.250Z,97.70
2019-01-13T03:48:36.162Z,97.90
2019-01-13T03:51:07.341Z,97.80
2019-01-13T03:53:39.387Z,97.90
2019-01-13T03:56:10.324Z,97.80
2019-01-13T03:58:41.443Z,97.90
2019-01-13T04:01:18.507Z,97.80
2019-01-13T04:03:45.268Z,97.90
2019-01-13T04:06:16.634Z,97.90
2019-01-13T04:08:47.566Z,98.00
2019-01-13T04:11:18.344Z,98.00
2019-01-13T04:13:49.154Z,98.00
2019-01-13T04:16:20.566Z,98.00
2019-01-13T04:18:51.786Z,98.00
2019-01-13T04:21:22.876Z,97.90
2019-01-13T04:23:53.676Z,98.00
2019-01-13T04:26:24.788Z,98.20
2019-01-13T04:28:55.669Z,98.10
2019-01-13T04:31:27.122Z,98.20
2019-01-13T04:33:57.837Z,98.00
2019-01-13T04:36:28.823Z,98.20
2019-01-13T04:38:59.758Z,98.30
2019-01-13T04:41:30.628Z,98.20
2019-01-13T04:44:01.400Z,98.10
2019-01-13T04:46:32.302Z,98.10
2019-01-13T04:49:03.612Z,98.10
2019-01-13T04:51:34.754Z,98.20
2019-01-13T04:54:05.764Z,98.20
2019-01-13T04:56:36.628Z,98.30
2019-01-13T04:59:07.758Z,98.20
2019-01-13T05:01:38.542Z,98.20
2019-01-13T05:04:09.320Z,98.30
2019-01-13T05:06:40.590Z,98.20
2019-01-13T05:09:11.438Z,98.20
2019-01-13T05:11:42.311Z,98.10
2019-01-13T05:14:13.175Z,98.10
2019-01-13T05:16:44.867Z,98.30
2019-01-13T05:19:15.996Z,98.40
2019-01-13T05:21:46.773Z,98.30
2019-01-13T05:24:17.604Z,98.30
2019-01-13T05:26:48.591Z,98.20
2019-01-13T05:29:19.415Z,98.30
2019-01-13T05:31:50.275Z,98.40
2019-01-13T05:34:21.159Z,98.30
2019-01-13T05:36:52.272Z,98.40
2019-01-13T05:39:23.085Z,98.30
2019-01-13T05:41:54.311Z,98.40
2019-01-13T05:44:25.905Z,98.30
2019-01-13T05:46:56.804Z,98.60
2019-01-13T05:49:27.727Z,98.70
2019-01-13T05:51:59.663Z,98.50
2019-01-13T05:54:31.090Z,98.30
2019-01-13T05:57:01.933Z,98.40
2019-01-13T05:59:32.839Z,98.50
2019-01-13T06:02:03.741Z,98.70
2019-01-13T06:04:34.506Z,98.70
2019-01-13T06:07:05.749Z,98.80
2019-01-13T06:09:36.556Z,98.50
2019-01-13T06:12:07.645Z,98.50
2019-01-13T06:14:38.801Z,98.70
2019-01-13T06:17:09.627Z,98.90
2019-01-13T06:19:40.520Z,99.00
2019-01-13T06:22:11.379Z,98.60
2019-01-13T06:24:42.559Z,98.90
2019-01-13T06:27:13.374Z,98.90
2019-01-13T06:29:44.176Z,99.20
2019-01-13T06:32:15.151Z,99.00
2019-01-13T06:34:45.939Z,99.10
2019-01-13T06:37:16.673Z,99.00
2019-01-13T06:39:47.777Z,99.20
2019-01-13T06:42:18.928Z,99.20
2019-01-13T06:44:50.050Z,99.20
2019-01-13T06:47:20.886Z,99.30
2019-01-13T06:49:51.932Z,99.20
2019-01-13T06:52:23.296Z,99.20
2019-01-13T06:54:54.436Z,99.30
2019-01-13T06:57:25.383Z,99.30
2019-01-13T06:59:56.145Z,99.30
2019-01-13T07:02:26.975Z,99.40
2019-01-13T07:04:57.862Z,99.40
2019-01-13T07:07:28.834Z,99.40
2019-01-13T07:09:59.784Z,99.60
2019-01-13T07:12:30.632Z,99.50
2019-01-13T07:15:01.510Z,99.70
2019-01-13T07:17:32.320Z,99.70
2019-01-13T07:20:03.093Z,99.70
2019-01-13T07:22:34.332Z,99.80
2019-01-13T07:25:08.295Z,99.70
2019-01-13T07:27:39.257Z,99.70
2019-01-13T07:30:12.753Z,99.70
2019-01-13T07:32:43.818Z,99.80
2019-01-13T07:35:14.502Z,99.70
2019-01-13T07:37:45.484Z,99.80
2019-01-13T07:40:20.759Z,99.90
2019-01-13T07:42:51.898Z,99.90
2019-01-13T07:45:23.577Z,99.90
2019-01-13T07:47:54.474Z,99.90
2019-01-13T07:50:25.418Z,99.90
2019-01-13T07:52:56.676Z,99.90
2019-01-13T07:55:27.500Z,99.90
2019-01-13T07:57:58.419Z,99.90
2019-01-13T08:00:31.708Z,99.90
2019-01-13T08:03:02.552Z,99.90
2019-01-13T08:05:33.541Z,99.90
2019-01-13T08:08:04.439Z,99.90
2019-01-13T08:10:35.328Z,99.90
2019-01-13T08:13:06.226Z,99.90
2019-01-13T08:15:37.382Z,99.90
2019-01-13T08:18:08.486Z,99.90
2019-01-13T08:20:39.098Z,99.90
2019-01-13T08:23:10.161Z,99.90
2019-01-13T08:25:41.213Z,99.90
2019-01-13T08:28:12.951Z,99.90
2019-01-13T08:30:43.886Z,99.90
2019-01-13T08:33:15.381Z,99.90
2019-01-13T08:35:46.516Z,99.90
2019-01-13T08:38:17.190Z,99.90
2019-01-13T08:40:48.069Z,99.90
2019-01-13T08:43:19.357Z,99.90
2019-01-13T08:45:50.958Z,99.90
2019-01-13T08:48:21.865Z,99.90
2019-01-13T08:50:52.880Z,99.90
2019-01-13T08:53:23.841Z,99.90
2019-01-13T08:55:54.639Z,99.90
2019-01-13T08:58:25.539Z,99.90
2019-01-13T09:00:56.623Z,99.90
2019-01-13T09:03:27.496Z,99.90
2019-01-13T09:05:58.425Z,99.90
2019-01-13T09:08:29.748Z,99.90
2019-01-13T09:11:01.226Z,99.90
2019-01-13T09:13:32.297Z,99.90
2019-01-13T09:16:03.651Z,99.90
2019-01-13T09:18:34.628Z,99.90
2019-01-13T09:21:05.611Z,99.90
2019-01-13T09:23:37.146Z,99.90
2019-01-13T09:26:09.664Z,99.90
2019-01-13T09:28:40.579Z,99.90
2019-01-13T09:31:11.667Z,99.90
2019-01-13T09:33:42.439Z,99.90
2019-01-13T09:36:13.456Z,99.90
2019-01-13T09:38:44.338Z,99.90
2019-01-13T09:41:15.974Z,99.90
2019-01-13T09:43:46.870Z,99.90
2019-01-13T09:46:18.050Z,99.90
2019-01-13T09:48:48.967Z,99.90
2019-01-13T09:51:19.872Z,99.90
2019-01-13T09:53:50.801Z,99.90
2019-01-13T09:56:22.096Z,99.80
2019-01-13T09:58:52.917Z,99.70
2019-01-13T10:01:23.886Z,99.80
2019-01-13T10:03:55.112Z,99.70
2019-01-13T10:06:25.941Z,99.80
2019-01-13T10:08:57.292Z,99.90
2019-01-13T10:11:28.254Z,99.90
2019-01-13T10:13:59.150Z,99.80
2019-01-13T10:16:31.039Z,99.70
2019-01-13T10:19:01.947Z,99.80
2019-01-13T10:21:33.087Z,99.60
2019-01-13T10:24:03.903Z,99.60
2019-01-13T10:26:35.293Z,99.80
2019-01-13T10:29:06.107Z,99.80
2019-01-13T10:31:36.942Z,99.60
2019-01-13T10:34:08.599Z,99.60
2019-01-13T10:36:43.668Z,99.40
2019-01-13T10:39:16.134Z,99.50
2019-01-13T10:41:47.014Z,99.70
2019-01-13T10:44:17.882Z,99.40
2019-01-13T10:46:48.844Z,99.60
2019-01-13T10:49:19.634Z,99.70
2019-01-13T10:51:50.877Z,99.80
2019-01-13T10:54:21.630Z,99.80
2019-01-13T10:56:52.563Z,99.90
2019-01-13T10:59:23.848Z,99.90
2019-01-13T11:01:54.771Z,99.90
2019-01-13T11:04:27.058Z,99.90
2019-01-13T11:06:59.105Z,99.90
2019-01-13T11:09:30.235Z,99.70
2019-01-13T11:12:01.305Z,99.60
2019-01-13T11:14:32.154Z,99.80
2019-01-13T11:17:03.221Z,99.70
2019-01-13T11:19:34.203Z,99.50
2019-01-13T11:22:05.122Z,99.50
2019-01-13T11:24:36.082Z,99.30
2019-01-13T11:27:07.355Z,99.40
2019-01-13T11:29:38.162Z,99.50
2019-01-13T11:32:09.162Z,99.80
2019-01-13T11:34:40.469Z,99.70
2019-01-13T11:37:11.450Z,99.50
2019-01-13T11:39:42.340Z,99.70
2019-01-13T11:42:13.720Z,99.70
2019-01-13T11:44:45.045Z,99.70
2019-01-13T11:47:16.293Z,99.50
2019-01-13T11:49:47.110Z,99.20
2019-01-13T11:52:18.520Z,99.60
2019-01-13T11:54:49.729Z,99.60
2019-01-13T11:57:20.564Z,99.90
2019-01-13T11:59:51.516Z,99.60
2019-01-13T12:02:22.399Z,99.30
2019-01-13T12:04:53.119Z,99.20
2019-01-13T12:07:24.102Z,99.90
2019-01-13T12:09:55.092Z,99.90
2019-01-13T12:12:26.399Z,99.90
2019-01-13T12:14:57.578Z,99.90
2019-01-13T12:17:28.458Z,99.90
2019-01-13T12:19:59.543Z,99.90
2019-01-13T12:22:30.514Z,99.90
2019-01-13T12:25:01.506Z,99.90
2019-01-13T12:27:33.491Z,99.90
2019-01-13T12:30:06.057Z,99.90
2019-01-13T12:32:36.905Z,99.90
2019-01-13T12:35:07.844Z,99.90
2019-01-13T12:37:39.030Z,99.90
2019-01-13T12:40:15.254Z,99.90
2019-01-13T12:42:46.458Z,99.90
2019-01-13T12:45:20.483Z,99.90
2019-01-13T12:47:51.637Z,99.90
2019-01-13T12:50:24.217Z,99.90
2019-01-13T12:52:55.687Z,99.90
2019-01-13T12:55:26.639Z,99.90
2019-01-13T12:57:57.462Z,99.90
2019-01-13T13:00:28.781Z,99.90
2019-01-13T13:02:59.691Z,99.90
2019-01-13T13:05:30.508Z,99.90
2019-01-13T13:08:01.793Z,99.90
2019-01-13T13:10:37.823Z,99.90
2019-01-13T13:13:09.006Z,99.90
2019-01-13T13:15:40.143Z,99.90
2019-01-13T13:18:11.112Z,99.90
2019-01-13T13:20:42.422Z,99.90
2019-01-13T13:23:13.700Z,99.90
2019-01-13T13:25:44.712Z,99.90
2019-01-13T13:28:15.810Z,99.90
2019-01-13T13:30:46.955Z,99.90
2019-01-13T13:33:18.346Z,99.90
2019-01-13T13:35:49.701Z,99.90
2019-01-13T13:38:20.845Z,99.90
2019-01-13T13:40:53.218Z,99.90
2019-01-13T13:43:27.020Z,99.60
2019-01-13T13:45:58.014Z,99.70
2019-01-13T13:48:28.931Z,99.60
2019-01-13T13:51:00.244Z,99.70
2019-01-13T13:53:31.079Z,99.70
2019-01-13T13:56:02.027Z,99.40
2019-01-13T13:58:33.272Z,99.60
2019-01-13T14:01:04.715Z,99.10
2019-01-13T14:03:45.541Z,99.40
2019-01-13T14:06:11.761Z,99.40
2019-01-13T14:08:42.640Z,99.40
2019-01-13T14:11:13.631Z,99.20
2019-01-13T14:13:44.873Z,99.30
2019-01-13T14:16:15.667Z,99.40
2019-01-13T14:18:47.613Z,99.40
2019-01-13T14:21:20.427Z,99.40
2019-01-13T14:23:51.486Z,99.40
2019-01-13T14:26:23.111Z,99.40
2019-01-13T14:28:53.902Z,99.50
2019-01-13T14:31:24.904Z,99.50
2019-01-13T14:33:55.954Z,99.40
2019-01-13T14:36:27.029Z,99.40
2019-01-13T14:38:58.330Z,99.50
2019-01-13T14:41:29.571Z,99.40
2019-01-13T14:44:00.387Z,99.50
2019-01-13T14:46:31.397Z,99.50
2019-01-13T14:49:02.282Z,99.40
2019-01-13T14:51:33.343Z,99.50
2019-01-13T14:54:04.204Z,99.30
2019-01-13T14:56:35.081Z,99.30
2019-01-13T14:59:07.025Z,99.40
2019-01-13T15:01:38.775Z,99.40
2019-01-13T15:04:09.926Z,99.30
2019-01-13T15:06:40.931Z,99.20
2019-01-13T15:09:12.069Z,99.50
2019-01-13T15:11:43.402Z,99.10
2019-01-13T15:14:14.805Z,99.20
2019-01-13T15:16:45.990Z,99.20
2019-01-13T15:19:17.279Z,99.10
2019-01-13T15:21:48.185Z,99.10
2019-01-13T15:24:19.147Z,99.20
2019-01-13T15:26:51.814Z,99.10
2019-01-13T15:29:23.381Z,99.00
2019-01-13T15:31:54.884Z,98.90
2019-01-13T15:34:25.930Z,99.10
2019-01-13T15:36:58.090Z,99.00
2019-01-13T15:39:28.969Z,99.20
2019-01-13T15:42:00.592Z,99.10
2019-01-13T15:44:31.566Z,99.10
2019-01-13T15:47:02.875Z,98.90
2019-01-13T15:49:33.859Z,98.90
2019-01-13T15:52:05.170Z,98.80
2019-01-13T15:54:35.946Z,98.90
2019-01-13T15:57:06.590Z,98.80
2019-01-13T15:59:37.471Z,98.80
2019-01-13T16:02:08.351Z,98.40
2019-01-13T16:04:39.294Z,98.40
2019-01-13T16:07:10.672Z,98.60
2019-01-13T16:09:41.710Z,98.70
2019-01-13T16:12:12.515Z,98.70
2019-01-13T16:14:43.518Z,98.60
2019-01-13T16:17:14.568Z,98.60
2019-01-13T16:19:45.426Z,98.40
2019-01-13T16:22:16.325Z,98.50
2019-01-13T16:24:47.580Z,98.50
2019-01-13T16:27:18.928Z,98.50
2019-01-13T16:29:49.711Z,98.50
2019-01-13T16:32:20.774Z,98.40
2019-01-13T16:34:51.925Z,98.20
2019-01-13T16:37:22.726Z,98.20
2019-01-13T16:39:53.932Z,98.20
2019-01-13T16:42:25.170Z,98.30
2019-01-13T16:44:56.001Z,98.60
2019-01-13T16:47:26.881Z,98.30
2019-01-13T16:49:58.194Z,98.30
2019-01-13T16:52:29.360Z,98.30
2019-01-13T16:55:00.806Z,98.10
2019-01-13T16:57:31.828Z,98.30
2019-01-13T17:00:02.622Z,98.10
2019-01-13T17:02:33.601Z,98.10
2019-01-13T17:05:06.251Z,98.10
2019-01-13T17:07:37.345Z,98.20
2019-01-13T17:10:15.418Z,98.10
2019-01-13T17:12:46.672Z,98.00
2019-01-13T17:15:20.056Z,98.00
2019-01-13T17:17:51.393Z,98.20
2019-01-13T17:20:23.514Z,98.10
2019-01-13T17:22:54.910Z,98.10
2019-01-13T17:25:27.544Z,98.00
2019-01-13T17:27:59.076Z,98.20
2019-01-13T17:30:31.708Z,98.10
2019-01-13T17:33:02.655Z,98.00
2019-01-13T17:35:33.929Z,98.20
2019-01-13T17:38:05.392Z,98.00
2019-01-13T17:40:36.566Z,98.10
2019-01-13T17:43:07.700Z,98.10
2019-01-13T17:45:39.123Z,98.10
2019-01-13T17:48:11.216Z,98.20
2019-01-13T17:50:42.249Z,98.20
2019-01-13T17:53:13.096Z,98.20
2019-01-13T17:55:44.477Z,98.20
2019-01-13T17:58:15.368Z,98.10
2019-01-13T18:00:51.865Z,98.10
2019-01-13T18:03:39.414Z,98.10
2019-01-13T18:06:10.467Z,98.10
2019-01-13T18:08:43.233Z,98.10
2019-01-13T18:11:14.518Z,98.10
2019-01-13T18:13:45.462Z,98.10
2019-01-13T18:16:16.360Z,98.30
2019-01-13T18:18:48.734Z,98.20
2019-01-13T18:21:19.662Z,98.10
2019-01-13T18:23:50.652Z,98.00
2019-01-13T18:26:22.991Z,97.90
2019-01-13T18:28:54.705Z,97.90
2019-01-13T18:31:25.872Z,97.80
2019-01-13T18:33:57.043Z,97.80
2019-01-13T18:36:28.102Z,97.80
2019-01-13T18:38:59.377Z,98.00
2019-01-13T18:41:30.598Z,97.70
2019-01-13T18:44:01.522Z,97.70
2019-01-13T18:46:32.615Z,97.70
2019-01-13T18:49:03.583Z,97.70
2019-01-13T18:51:34.559Z,97.70
2019-01-13T18:54:05.966Z,97.90
2019-01-13T18:56:37.930Z,97.80
2019-01-13T18:59:09.002Z,97.70
2019-01-13T19:01:40.033Z,98.00
2019-01-13T19:04:10.736Z,97.50
2019-01-13T19:06:41.627Z,97.60
2019-01-13T19:09:12.539Z,97.40
2019-01-13T19:11:48.031Z,97.30
2019-01-13T19:14:21.614Z,97.20
2019-01-13T19:16:54.889Z,97.20
2019-01-13T19:19:25.865Z,97.10
2019-01-13T19:21:57.101Z,97.00
2019-01-13T19:24:28.060Z,96.80
2019-01-13T19:26:59.457Z,96.70
2019-01-13T19:29:30.557Z,96.70
2019-01-13T19:32:01.379Z,96.60
2019-01-13T19:34:32.604Z,96.30
2019-01-13T19:37:03.646Z,96.40
2019-01-13T19:39:35.138Z,96.30
2019-01-13T19:42:06.702Z,96.10
2019-01-13T19:44:37.735Z,96.20
2019-01-13T19:47:08.720Z,96.00
2019-01-13T19:49:39.514Z,95.90
2019-01-13T19:52:10.426Z,95.90
2019-01-13T19:54:41.210Z,95.50
2019-01-13T19:57:12.485Z,95.70
2019-01-13T19:59:43.872Z,95.50
2019-01-13T20:02:14.725Z,95.60
2019-01-13T20:04:45.763Z,95.60
2019-01-13T20:07:16.973Z,95.80
2019-01-13T20:09:48.007Z,95.50
2019-01-13T20:12:19.212Z,95.60
2019-01-13T20:14:50.274Z,95.80
2019-01-13T20:17:22.120Z,95.80
2019-01-13T20:19:53.347Z,95.90
2019-01-13T20:22:24.532Z,95.90
2019-01-13T20:24:55.320Z,95.90
2019-01-13T20:27:26.317Z,95.50
2019-01-13T20:29:57.197Z,95.70
2019-01-13T20:32:28.251Z,95.40
2019-01-13T20:35:00.099Z,95.40
2019-01-13T20:37:31.101Z,95.80
2019-01-13T20:40:02.905Z,95.90
2019-01-13T20:42:34.636Z,95.60
2019-01-13T20:45:08.561Z,95.30
2019-01-13T20:47:39.652Z,95.20
2019-01-13T20:50:13.279Z,95.00
2019-01-13T20:52:44.270Z,95.00
2019-01-13T20:55:16.514Z,95.20
2019-01-13T20:57:47.669Z,95.10
2019-01-13T21:00:27.497Z,94.90
2019-01-13T21:03:00.326Z,94.60
2019-01-13T21:05:32.333Z,94.90
2019-01-13T21:08:04.190Z,94.70
2019-01-13T21:10:35.805Z,94.50
2019-01-13T21:13:06.922Z,94.30
2019-01-13T21:15:38.253Z,94.60
2019-01-13T21:18:08.944Z,94.70
2019-01-13T21:20:40.741Z,94.50
2019-01-13T21:23:12.802Z,94.10
2019-01-13T21:25:45.042Z,94.60
2019-01-13T21:28:16.002Z,94.60
2019-01-13T21:30:47.219Z,94.60
2019-01-13T21:33:18.779Z,94.70
2019-01-13T21:35:49.802Z,94.30
2019-01-13T21:38:21.894Z,94.50
2019-01-13T21:40:53.441Z,94.20
2019-01-13T21:43:24.304Z,94.60
2019-01-13T21:45:55.290Z,94.20
2019-01-13T21:48:26.183Z,94.10
2019-01-13T21:50:56.994Z,94.20
2019-01-13T21:53:28.090Z,94.00
2019-01-13T21:55:58.733Z,93.80
2019-01-13T21:58:29.515Z,93.70
2019-01-13T22:01:00.633Z,93.70
2019-01-13T22:03:31.408Z,93.80
2019-01-13T22:06:02.250Z,93.80
2019-01-13T22:08:33.146Z,93.70
2019-01-13T22:11:04.292Z,94.00
2019-01-13T22:13:35.329Z,94.10
2019-01-13T22:16:06.378Z,94.00
2019-01-13T22:18:37.261Z,93.50
2019-01-13T22:21:08.006Z,93.70
2019-01-13T22:23:39.158Z,94.20
2019-01-13T22:26:10.945Z,94.20
2019-01-13T22:28:41.979Z,93.80
2019-01-13T22:31:12.977Z,94.20
2019-01-13T22:33:43.978Z,94.10
2019-01-13T22:36:15.206Z,94.10
2019-01-13T22:38:46.407Z,93.90
2019-01-13T22:41:18.052Z,94.40
2019-01-13T22:43:48.880Z,93.80
2019-01-13T22:46:19.764Z,93.90
2019-01-13T22:48:50.671Z,94.10
2019-01-13T22:51:21.946Z,94.00
2019-01-13T22:53:53.056Z,93.70
2019-01-13T22:56:24.154Z,93.80
2019-01-13T22:58:55.009Z,93.80
2019-01-13T23:01:28.536Z,93.60
2019-01-13T23:04:01.556Z,93.80
2019-01-13T23:06:39.177Z,94.00
2019-01-13T23:09:12.621Z,94.00
2019-01-13T23:11:44.232Z,94.20
2019-01-13T23:14:18.689Z,93.50
2019-01-13T23:16:52.455Z,93.70
2019-01-13T23:19:27.516Z,93.50
2019-01-13T23:21:58.446Z,93.50
2019-01-13T23:24:30.054Z,93.70
2019-01-13T23:27:00.726Z,93.60
2019-01-13T23:29:31.263Z,93.80
2019-01-13T23:32:02.067Z,93.90
2019-01-13T23:34:33.831Z,93.80
2019-01-13T23:37:06.902Z,93.50
2019-01-13T23:39:39.066Z,93.10
2019-01-13T23:42:11.357Z,93.30
2019-01-13T23:44:50.928Z,93.30
2019-01-13T23:47:23.439Z,93.40
2019-01-13T23:49:55.157Z,93.10
2019-01-13T23:52:27.873Z,92.80
2019-01-13T23:54:58.547Z,93.00
2019-01-13T23:57:31.805Z,92.90
